createdAt,value
2023-03-11T00:01:11.959Z,-3.16
2023-03-11T00:03:40.717Z,-3.01
2023-03-11T00:06:09.202Z,-3.14
2023-03-11T00:08:37.582Z,-3.23
2023-03-11T00:11:06.226Z,-3.20
2023-03-11T00:13:36.646Z,-3.01
2023-03-11T00:16:07.482Z,-2.90
2023-03-11T00:18:35.816Z,-2.88
2023-03-11T00:21:04.435Z,-3.09
2023-03-11T00:23:32.780Z,-2.72
2023-03-11T00:26:03.173Z,-2.67
2023-03-11T00:28:34.160Z,-2.92
2023-03-11T00:31:03.623Z,-2.52
2023-03-11T00:33:33.439Z,-2.50
2023-03-11T00:36:01.986Z,-2.41
2023-03-11T00:38:30.791Z,-2.33
2023-03-11T00:41:01.722Z,-2.31
2023-03-11T00:43:33.055Z,-2.23
2023-03-11T00:46:01.599Z,-2.32
2023-03-11T00:48:30.015Z,-2.17
2023-03-11T00:51:00.350Z,-2.25
2023-03-11T00:53:28.853Z,-2.43
2023-03-11T00:55:57.199Z,-2.52
2023-03-11T00:58:28.210Z,-2.42
2023-03-11T01:00:58.221Z,-2.48
2023-03-11T01:03:26.831Z,-2.77
2023-03-11T01:05:55.353Z,-2.64
2023-03-11T01:08:27.801Z,-2.79
2023-03-11T01:10:56.337Z,-3.04
2023-03-11T01:13:24.817Z,-3.02
2023-03-11T01:15:54.452Z,-2.98
2023-03-11T01:18:23.424Z,-2.96
2023-03-11T01:20:52.357Z,-3.12
2023-03-11T01:23:21.779Z,-3.11
2023-03-11T01:25:51.654Z,-3.00
2023-03-11T01:28:20.153Z,-2.95
2023-03-11T01:30:48.631Z,-2.91
2023-03-11T01:33:20.008Z,-3.14
2023-03-11T01:35:49.392Z,-2.93
2023-03-11T01:38:18.218Z,-3.60
2023-03-11T01:40:49.354Z,-3.25
2023-03-11T01:43:42.651Z,-3.47
2023-03-11T01:46:17.760Z,-3.23
2023-03-11T01:48:49.486Z,-3.39
2023-03-11T01:51:24.869Z,-3.29
2023-03-11T01:53:55.045Z,-3.36
2023-03-11T01:56:25.216Z,-3.53
2023-03-11T01:58:56.515Z,-3.59
2023-03-11T02:01:26.106Z,-3.40
2023-03-11T02:03:56.557Z,-3.46
2023-03-11T02:06:26.770Z,-3.40
2023-03-11T02:08:56.374Z,-3.40
2023-03-11T02:11:30.480Z,-3.80
2023-03-11T02:14:07.380Z,-3.57
2023-03-11T02:16:36.192Z,-3.74
2023-03-11T02:19:17.190Z,-3.52
2023-03-11T02:21:46.219Z,-3.66
2023-03-11T02:24:23.411Z,-3.69
2023-03-11T02:26:57.079Z,-3.81
2023-03-11T02:29:28.150Z,-3.56
2023-03-11T02:31:58.075Z,-3.65
2023-03-11T02:34:30.696Z,-3.83
2023-03-11T02:37:00.123Z,-3.85
2023-03-11T02:39:32.906Z,-3.76
2023-03-11T02:42:07.104Z,-3.95
2023-03-11T02:44:36.302Z,-3.88
2023-03-11T02:47:05.270Z,-3.82
2023-03-11T02:49:34.355Z,-3.90
2023-03-11T02:52:02.785Z,-3.94
2023-03-11T02:54:32.073Z,-3.83
2023-03-11T02:57:00.460Z,-3.88
2023-03-11T02:59:30.819Z,-3.87
2023-03-11T03:02:00.864Z,-3.95
2023-03-11T03:04:29.792Z,-3.96
2023-03-11T03:07:00.113Z,-4.11
2023-03-11T03:09:28.550Z,-4.06
2023-03-11T03:11:57.402Z,-4.08
2023-03-11T03:14:26.453Z,-4.16
2023-03-11T03:16:56.485Z,-4.34
2023-03-11T03:19:24.975Z,-4.34
2023-03-11T03:21:55.554Z,-4.28
2023-03-11T03:24:25.256Z,-4.30
2023-03-11T03:26:53.991Z,-4.41
2023-03-11T03:29:23.602Z,-4.33
2023-03-11T03:31:52.610Z,-4.32
2023-03-11T03:34:22.519Z,-4.36
2023-03-11T03:36:50.926Z,-4.38
2023-03-11T03:39:20.651Z,-4.48
2023-03-11T03:41:51.540Z,-4.44
2023-03-11T03:44:20.120Z,-4.45
2023-03-11T03:46:49.138Z,-4.63
2023-03-11T03:49:17.562Z,-4.59
2023-03-11T03:51:48.077Z,-4.75
2023-03-11T03:54:24.773Z,-4.85
2023-03-11T03:56:53.586Z,-4.82
2023-03-11T03:59:22.699Z,-4.80
2023-03-11T04:01:56.267Z,-4.85
2023-03-11T04:04:25.972Z,-4.78
2023-03-11T04:06:55.912Z,-4.93
2023-03-11T04:09:25.298Z,-4.74
2023-03-11T04:11:53.817Z,-4.99
2023-03-11T04:14:22.411Z,-4.67
2023-03-11T04:16:56.235Z,-4.70
2023-03-11T04:19:24.796Z,-4.74
2023-03-11T04:21:53.268Z,-4.76
2023-03-11T04:24:24.826Z,-5.02
2023-03-11T04:26:53.922Z,-4.79
2023-03-11T04:29:22.848Z,-4.78
2023-03-11T04:31:53.918Z,-4.82
2023-03-11T04:34:22.895Z,-4.78
2023-03-11T04:36:54.576Z,-4.98
2023-03-11T04:39:29.041Z,-4.70
2023-03-11T04:41:58.458Z,-4.80
2023-03-11T04:44:28.508Z,-4.84
2023-03-11T04:46:58.044Z,-5.28
2023-03-11T04:49:26.965Z,-4.91
2023-03-11T04:51:55.656Z,-4.90
2023-03-11T04:54:25.088Z,-5.10
2023-03-11T04:56:54.964Z,-5.13
2023-03-11T04:59:24.422Z,-5.24
2023-03-11T05:01:53.917Z,-5.20
2023-03-11T05:04:23.038Z,-5.23
2023-03-11T05:06:52.223Z,-4.97
2023-03-11T05:09:21.447Z,-4.85
2023-03-11T05:11:52.892Z,-4.81
2023-03-11T05:14:24.143Z,-5.00
2023-03-11T05:16:54.332Z,-5.08
2023-03-11T05:19:31.845Z,-5.17
2023-03-11T05:22:03.467Z,-5.21
2023-03-11T05:24:33.201Z,-5.25
2023-03-11T05:27:02.763Z,-5.28
2023-03-11T05:29:34.163Z,-5.23
2023-03-11T05:32:02.623Z,-5.22
2023-03-11T05:34:31.140Z,-5.32
2023-03-11T05:37:03.186Z,-5.27
2023-03-11T05:39:32.571Z,-5.23
2023-03-11T05:42:01.987Z,-5.49
2023-03-11T05:44:30.581Z,-5.61
2023-03-11T05:47:00.897Z,-5.35
2023-03-11T05:49:32.697Z,-5.52
2023-03-11T05:52:01.146Z,-5.65
2023-03-11T05:54:32.207Z,-5.72
2023-03-11T05:57:01.144Z,-6.00
2023-03-11T05:59:30.016Z,-5.83
2023-03-11T06:02:05.001Z,-5.97
2023-03-11T06:04:33.400Z,-5.64
2023-03-11T06:07:03.949Z,-5.51
2023-03-11T06:09:37.114Z,-5.53
2023-03-11T06:12:08.372Z,-5.51
2023-03-11T06:14:55.596Z,-5.45
2023-03-11T06:17:25.586Z,-5.52
2023-03-11T06:19:54.386Z,-5.48
2023-03-11T06:22:23.206Z,-5.73
2023-03-11T06:24:51.751Z,-5.65
2023-03-11T06:27:20.251Z,-5.45
2023-03-11T06:29:52.662Z,-5.32
2023-03-11T06:32:21.101Z,-5.36
2023-03-11T06:34:53.873Z,-5.38
2023-03-11T06:37:25.558Z,-5.09
2023-03-11T06:39:54.429Z,-5.26
2023-03-11T06:42:25.501Z,-5.18
2023-03-11T06:44:56.575Z,-5.08
2023-03-11T06:47:25.786Z,-5.11
2023-03-11T06:49:55.740Z,-5.14
2023-03-11T06:52:24.155Z,-5.26
2023-03-11T06:54:52.744Z,-4.79
2023-03-11T06:57:21.666Z,-4.73
2023-03-11T06:59:51.897Z,-4.86
2023-03-11T07:02:21.056Z,-4.86
2023-03-11T07:04:51.336Z,-5.05
2023-03-11T07:07:22.828Z,-4.84
2023-03-11T07:09:51.328Z,-4.42
2023-03-11T07:12:23.189Z,-4.37
2023-03-11T07:14:55.922Z,-4.21
2023-03-11T07:17:25.363Z,-4.13
2023-03-11T07:19:55.032Z,-4.17
2023-03-11T07:22:24.968Z,-4.38
2023-03-11T07:24:53.607Z,-3.79
2023-03-11T07:27:23.455Z,-3.72
2023-03-11T07:29:51.851Z,-3.72
2023-03-11T07:32:20.398Z,-3.60
2023-03-11T07:34:48.898Z,-3.50
2023-03-11T07:37:17.781Z,-3.58
2023-03-11T07:39:47.631Z,-3.66
2023-03-11T07:42:15.973Z,-3.16
2023-03-11T07:44:44.661Z,-3.07
2023-03-11T07:47:13.060Z,-2.98
2023-03-11T07:49:41.480Z,-2.99
2023-03-11T07:52:09.939Z,-2.87
2023-03-11T07:54:38.322Z,-2.89
2023-03-11T07:57:09.229Z,-2.63
2023-03-11T07:59:37.552Z,-2.57
2023-03-11T08:02:06.150Z,-2.45
2023-03-11T08:04:34.521Z,-2.24
2023-03-11T08:07:02.970Z,-2.15
2023-03-11T08:09:31.482Z,-1.96
2023-03-11T08:11:59.890Z,-1.67
2023-03-11T08:14:29.648Z,-1.29
2023-03-11T08:16:58.078Z,-1.04
2023-03-11T08:19:26.434Z,-0.92
2023-03-11T08:21:54.779Z,-0.65
2023-03-11T08:24:23.194Z,-0.48
2023-03-11T08:26:52.916Z,-0.14
2023-03-11T08:29:21.311Z,-0.03
2023-03-11T08:31:51.599Z,0.03
2023-03-11T08:34:21.335Z,0.18
2023-03-11T08:36:51.368Z,0.37
2023-03-11T08:39:19.774Z,0.26
2023-03-11T08:41:48.228Z,0.48
2023-03-11T08:44:16.944Z,0.33
2023-03-11T08:46:45.723Z,0.47
2023-03-11T08:49:15.534Z,0.38
2023-03-11T08:51:44.024Z,0.40
2023-03-11T08:54:15.679Z,0.81
2023-03-11T08:56:44.161Z,0.53
2023-03-11T08:59:12.956Z,0.53
2023-03-11T09:01:42.745Z,1.28
2023-03-11T09:04:12.897Z,1.11
2023-03-11T09:06:45.895Z,1.04
2023-03-11T09:09:14.757Z,1.25
2023-03-11T09:11:43.846Z,1.42
2023-03-11T09:14:12.953Z,0.03
2023-03-11T09:16:42.280Z,0.49
2023-03-11T09:19:11.463Z,0.82
2023-03-11T09:21:40.177Z,2.11
2023-03-11T09:24:11.153Z,1.97
2023-03-11T09:26:39.853Z,2.90
2023-03-11T09:29:08.451Z,2.44
2023-03-11T09:31:38.630Z,3.15
2023-03-11T09:34:07.694Z,3.18
2023-03-11T09:36:36.128Z,3.81
2023-03-11T09:39:04.967Z,3.85
2023-03-11T09:41:55.692Z,3.68
2023-03-11T09:44:35.456Z,4.07
2023-03-11T09:47:48.858Z,4.02
2023-03-11T09:50:43.932Z,3.81
2023-03-11T09:53:38.204Z,2.87
2023-03-11T09:56:10.125Z,3.27
2023-03-11T09:58:45.418Z,3.29
2023-03-11T10:01:22.636Z,2.56
2023-03-11T10:03:54.916Z,2.15
2023-03-11T10:06:26.548Z,3.49
2023-03-11T10:09:08.553Z,4.44
2023-03-11T10:11:55.008Z,4.43
2023-03-11T10:14:52.705Z,3.88
2023-03-11T10:17:46.774Z,4.10
2023-03-11T10:20:25.032Z,4.01
2023-03-11T10:23:06.336Z,4.03
2023-03-11T10:25:50.975Z,4.55
2023-03-11T10:28:23.231Z,4.51
2023-03-11T10:30:57.359Z,4.02
2023-03-11T10:33:36.821Z,4.32
2023-03-11T10:36:14.664Z,4.47
2023-03-11T10:38:47.800Z,4.92
2023-03-11T10:41:25.036Z,5.18
2023-03-11T10:44:01.450Z,5.25
2023-03-11T10:46:32.023Z,5.72
2023-03-11T10:49:00.553Z,5.33
2023-03-11T10:51:35.771Z,5.50
2023-03-11T10:54:06.038Z,5.73
2023-03-11T10:56:37.605Z,5.02
2023-03-11T10:59:26.021Z,5.32
2023-03-11T11:02:06.922Z,5.09
2023-03-11T11:04:40.626Z,4.98
2023-03-11T11:07:29.057Z,4.88
2023-03-11T11:10:20.181Z,5.41
2023-03-11T11:13:00.020Z,5.45
2023-03-11T11:15:32.175Z,5.25
2023-03-11T11:18:06.102Z,4.80
2023-03-11T11:20:35.704Z,4.80
2023-03-11T11:23:05.698Z,4.71
2023-03-11T11:25:38.008Z,4.66
2023-03-11T11:28:18.658Z,4.22
2023-03-11T11:30:56.494Z,4.12
2023-03-11T11:33:30.313Z,4.81
2023-03-11T11:36:02.709Z,4.64
2023-03-11T11:38:34.932Z,4.16
2023-03-11T11:41:06.831Z,3.24
2023-03-11T11:43:49.759Z,3.78
2023-03-11T11:46:28.318Z,3.85
2023-03-11T11:49:09.966Z,3.69
2023-03-11T11:51:44.250Z,3.24
2023-03-11T11:54:19.973Z,2.94
2023-03-11T11:56:48.523Z,4.21
2023-03-11T11:59:20.082Z,4.07
2023-03-11T12:02:02.625Z,4.67
2023-03-11T12:04:50.519Z,4.83
2023-03-11T12:07:38.569Z,5.09
2023-03-11T12:10:30.650Z,4.78
2023-03-11T12:13:36.702Z,4.74
2023-03-11T12:16:16.311Z,5.11
2023-03-11T12:18:52.970Z,5.36
2023-03-11T12:21:42.386Z,5.59
2023-03-11T12:24:37.676Z,5.64
2023-03-11T12:27:20.654Z,5.48
2023-03-11T12:29:53.981Z,5.48
2023-03-11T12:32:31.637Z,5.11
2023-03-11T12:35:10.950Z,5.38
2023-03-11T12:37:41.010Z,5.58
2023-03-11T12:41:00.234Z,5.70
2023-03-11T12:44:09.457Z,5.47
2023-03-11T12:47:35.228Z,5.33
2023-03-11T12:50:40.641Z,5.39
2023-03-11T12:53:18.886Z,5.40
2023-03-11T12:56:08.465Z,5.26
2023-03-11T12:59:10.473Z,5.88
2023-03-11T13:02:00.055Z,6.07
2023-03-11T13:04:45.397Z,6.10
2023-03-11T13:07:47.512Z,6.06
2023-03-11T13:10:37.372Z,5.99
2023-03-11T13:13:41.686Z,5.53
2023-03-11T13:16:40.077Z,5.38
2023-03-11T13:19:47.754Z,5.35
2023-03-11T13:22:57.517Z,5.25
2023-03-11T13:26:12.901Z,5.72
2023-03-11T13:29:16.283Z,6.05
2023-03-11T13:31:59.958Z,6.23
2023-03-11T13:34:38.308Z,6.17
2023-03-11T13:37:19.689Z,6.71
2023-03-11T13:40:02.029Z,6.95
2023-03-11T13:42:38.899Z,6.83
2023-03-11T13:45:18.305Z,7.03
2023-03-11T13:47:49.666Z,6.43
2023-03-11T13:50:27.918Z,6.39
2023-03-11T13:52:58.138Z,6.47
2023-03-11T13:55:33.607Z,6.61
2023-03-11T13:58:14.670Z,6.92
2023-03-11T14:00:51.077Z,7.29
2023-03-11T14:03:23.196Z,6.94
2023-03-11T14:05:59.256Z,7.07
2023-03-11T14:08:30.354Z,6.81
2023-03-11T14:11:00.919Z,6.75
2023-03-11T14:13:32.621Z,6.50
2023-03-11T14:16:09.419Z,6.62
2023-03-11T14:18:41.118Z,6.13
2023-03-11T14:21:16.297Z,5.83
2023-03-11T14:23:47.546Z,6.27
2023-03-11T14:26:19.909Z,6.59
2023-03-11T14:28:53.440Z,6.93
2023-03-11T14:31:32.959Z,6.66
2023-03-11T14:34:06.869Z,6.50
2023-03-11T14:36:44.396Z,6.52
2023-03-11T14:39:30.414Z,6.81
2023-03-11T14:42:06.624Z,6.75
2023-03-11T14:44:41.698Z,6.52
2023-03-11T14:47:24.741Z,6.62
2023-03-11T14:49:55.937Z,6.42
2023-03-11T14:52:34.546Z,6.72
2023-03-11T14:55:05.326Z,6.49
2023-03-11T14:57:42.641Z,7.03
2023-03-11T15:00:20.403Z,7.56
2023-03-11T15:03:07.430Z,7.17
2023-03-11T15:05:43.809Z,6.75
2023-03-11T15:08:12.628Z,6.45
2023-03-11T15:10:41.427Z,6.23
2023-03-11T15:13:16.129Z,6.13
2023-03-11T15:15:56.378Z,6.71
2023-03-11T15:18:29.920Z,6.03
2023-03-11T15:21:13.811Z,5.78
2023-03-11T15:23:47.327Z,5.61
2023-03-11T15:26:28.024Z,5.58
2023-03-11T15:29:00.322Z,5.27
2023-03-11T15:31:34.654Z,5.80
2023-03-11T15:34:25.422Z,5.39
2023-03-11T15:37:07.598Z,5.03
2023-03-11T15:39:45.766Z,5.06
2023-03-11T15:42:21.705Z,5.31
2023-03-11T15:45:19.424Z,5.28
2023-03-11T15:47:50.833Z,4.71
2023-03-11T15:50:29.113Z,4.61
2023-03-11T15:53:03.710Z,4.63
2023-03-11T15:55:32.411Z,4.24
2023-03-11T15:58:07.834Z,4.07
2023-03-11T16:00:38.401Z,4.14
2023-03-11T16:03:08.251Z,4.10
2023-03-11T16:05:36.676Z,4.15
2023-03-11T16:08:05.315Z,4.37
2023-03-11T16:10:33.826Z,4.26
2023-03-11T16:13:02.538Z,4.16
2023-03-11T16:15:33.485Z,4.05
2023-03-11T16:18:04.943Z,4.02
2023-03-11T16:20:39.999Z,3.95
2023-03-11T16:23:13.152Z,3.46
2023-03-11T16:25:41.892Z,3.50
2023-03-11T16:28:14.080Z,3.28
2023-03-11T16:30:42.567Z,3.06
2023-03-11T16:33:11.053Z,3.00
2023-03-11T16:35:40.852Z,3.28
2023-03-11T16:38:09.703Z,3.33
2023-03-11T16:40:38.631Z,3.26
2023-03-11T16:43:09.967Z,2.78
2023-03-11T16:45:38.434Z,2.79
2023-03-11T16:48:07.726Z,2.86
2023-03-11T16:50:37.582Z,2.74
2023-03-11T16:53:07.518Z,3.03
2023-03-11T16:55:35.986Z,3.00
2023-03-11T16:58:04.493Z,3.12
2023-03-11T17:00:32.905Z,2.88
2023-03-11T17:03:01.315Z,2.69
2023-03-11T17:05:29.787Z,2.81
2023-03-11T17:08:04.118Z,2.67
2023-03-11T17:10:38.644Z,2.92
2023-03-11T17:13:07.304Z,2.70
2023-03-11T17:15:38.018Z,2.86
2023-03-11T17:18:06.780Z,2.70
2023-03-11T17:20:37.186Z,2.71
2023-03-11T17:23:05.722Z,2.66
2023-03-11T17:25:35.827Z,2.62
2023-03-11T17:28:04.528Z,2.46
2023-03-11T17:30:37.107Z,2.44
2023-03-11T17:33:06.268Z,2.31
2023-03-11T17:35:34.798Z,1.95
2023-03-11T17:38:03.288Z,1.80
2023-03-11T17:40:32.705Z,1.62
2023-03-11T17:43:02.591Z,1.55
2023-03-11T17:45:31.438Z,1.27
2023-03-11T17:47:59.850Z,1.19
2023-03-11T17:50:28.299Z,1.08
2023-03-11T17:52:57.579Z,1.10
2023-03-11T17:55:26.327Z,0.99
2023-03-11T17:57:54.846Z,1.00
2023-03-11T18:00:25.345Z,0.91
2023-03-11T18:02:53.729Z,0.95
2023-03-11T18:05:22.317Z,0.90
2023-03-11T18:07:51.186Z,0.88
2023-03-11T18:10:20.330Z,1.02
2023-03-11T18:12:49.860Z,0.95
2023-03-11T18:15:19.670Z,0.92
2023-03-11T18:17:50.261Z,0.93
2023-03-11T18:20:19.149Z,0.96
2023-03-11T18:22:47.502Z,1.03
2023-03-11T18:25:16.289Z,0.73
2023-03-11T18:27:44.712Z,0.80
2023-03-11T18:30:14.542Z,0.50
2023-03-11T18:32:43.322Z,0.53
2023-03-11T18:35:14.124Z,0.28
2023-03-11T18:37:42.910Z,0.17
2023-03-11T18:40:13.389Z,0.31
2023-03-11T18:42:41.926Z,0.30
2023-03-11T18:45:12.301Z,0.20
2023-03-11T18:47:40.834Z,0.28
2023-03-11T18:50:10.929Z,-0.05
2023-03-11T18:52:40.844Z,0.04
2023-03-11T18:55:09.981Z,0.06
2023-03-11T18:57:40.374Z,0.02
2023-03-11T19:00:10.637Z,-0.03
2023-03-11T19:02:38.986Z,-0.10
2023-03-11T19:05:08.815Z,-0.18
2023-03-11T19:07:37.229Z,-0.30
2023-03-11T19:10:08.077Z,-0.29
2023-03-11T19:12:37.134Z,-0.47
2023-03-11T19:15:06.957Z,-0.32
2023-03-11T19:17:35.616Z,-0.32
2023-03-11T19:20:09.200Z,-0.36
2023-03-11T19:22:38.309Z,-0.38
2023-03-11T19:25:09.546Z,-0.27
2023-03-11T19:27:39.092Z,-0.25
2023-03-11T19:30:09.894Z,-0.23
2023-03-11T19:32:38.645Z,-0.20
2023-03-11T19:35:10.904Z,-0.24
2023-03-11T19:37:39.308Z,-0.30
2023-03-11T19:40:11.618Z,-0.28
2023-03-11T19:42:40.180Z,-0.32
2023-03-11T19:45:09.853Z,-0.21
2023-03-11T19:47:39.085Z,-0.17
2023-03-11T19:50:08.577Z,-0.20
2023-03-11T19:52:37.646Z,-0.21
2023-03-11T19:55:09.454Z,-0.29
2023-03-11T19:57:37.826Z,-0.25
2023-03-11T20:00:08.165Z,-0.24
2023-03-11T20:02:36.554Z,-0.35
2023-03-11T20:05:05.417Z,-0.28
2023-03-11T20:07:34.901Z,-0.52
2023-03-11T20:10:04.153Z,-0.40
2023-03-11T20:12:34.386Z,-0.49
2023-03-11T20:15:02.862Z,-0.40
2023-03-11T20:17:31.412Z,-0.36
2023-03-11T20:19:59.754Z,-0.42
2023-03-11T20:22:28.119Z,-0.46
2023-03-11T20:24:56.692Z,-0.53
2023-03-11T20:27:25.108Z,-0.60
2023-03-11T20:29:55.243Z,-0.60
2023-03-11T20:32:23.843Z,-0.57
2023-03-11T20:34:52.276Z,-0.58
2023-03-11T20:37:20.643Z,-0.56
2023-03-11T20:39:48.999Z,-0.61
2023-03-11T20:42:17.552Z,-0.56
2023-03-11T20:44:46.015Z,-0.52
2023-03-11T20:47:15.841Z,-0.51
2023-03-11T20:49:45.241Z,-0.47
2023-03-11T20:52:13.957Z,-0.44
2023-03-11T20:54:43.062Z,-0.52
2023-03-11T20:57:11.696Z,-0.37
2023-03-11T20:59:40.249Z,-0.31
2023-03-11T21:02:11.639Z,-0.18
2023-03-11T21:04:44.040Z,-0.26
2023-03-11T21:07:12.696Z,-0.05
2023-03-11T21:09:41.201Z,-0.06
2023-03-11T21:12:09.673Z,0.07
2023-03-11T21:14:38.101Z,-0.17
2023-03-11T21:17:06.644Z,0.13
2023-03-11T21:19:35.143Z,-0.08
2023-03-11T21:22:06.688Z,0.29
2023-03-11T21:24:35.187Z,0.23
2023-03-11T21:27:03.991Z,0.38
2023-03-11T21:29:32.535Z,0.28
2023-03-11T21:32:01.131Z,0.33
2023-03-11T21:34:29.902Z,0.45
2023-03-11T21:36:58.378Z,0.29
2023-03-11T21:39:28.431Z,0.50
2023-03-11T21:41:57.271Z,0.27
2023-03-11T21:44:25.900Z,0.51
2023-03-11T21:46:54.445Z,0.50
2023-03-11T21:49:23.136Z,0.40
2023-03-11T21:51:51.558Z,0.59
2023-03-11T21:54:20.071Z,0.63
2023-03-11T21:56:49.874Z,0.66
2023-03-11T21:59:18.340Z,0.63
2023-03-11T22:01:46.903Z,0.63
2023-03-11T22:04:15.370Z,0.66
2023-03-11T22:06:44.238Z,0.59
2023-03-11T22:09:12.618Z,0.50
2023-03-11T22:11:41.307Z,0.75
2023-03-11T22:14:11.171Z,0.69
2023-03-11T22:16:39.595Z,0.65
2023-03-11T22:19:10.067Z,0.80
2023-03-11T22:21:38.760Z,0.82
2023-03-11T22:24:07.810Z,0.62
2023-03-11T22:26:36.408Z,0.80
2023-03-11T22:29:06.174Z,0.66
2023-03-11T22:31:37.021Z,0.65
2023-03-11T22:34:05.375Z,0.76
2023-03-11T22:36:33.877Z,0.85
2023-03-11T22:39:04.378Z,0.64
2023-03-11T22:41:33.827Z,0.83
2023-03-11T22:44:02.254Z,0.73
2023-03-11T22:46:31.000Z,0.62
2023-03-11T22:49:01.042Z,0.56
2023-03-11T22:51:29.377Z,0.77
2023-03-11T22:53:58.233Z,0.69
2023-03-11T22:56:26.939Z,0.63
2023-03-11T22:58:55.327Z,0.58
2023-03-11T23:01:23.896Z,0.49
2023-03-11T23:03:52.686Z,0.45
2023-03-11T23:06:23.878Z,0.30
2023-03-11T23:08:52.973Z,0.29
2023-03-11T23:11:23.487Z,0.12
2023-03-11T23:13:52.566Z,0.22
2023-03-11T23:16:23.315Z,0.12
2023-03-11T23:18:53.953Z,0.02
2023-03-11T23:21:26.579Z,0.11
2023-03-11T23:23:56.020Z,-0.02
2023-03-11T23:26:25.284Z,0.16
2023-03-11T23:28:54.108Z,0.06
2023-03-11T23:31:25.729Z,0.05
2023-03-11T23:33:54.467Z,0.22
2023-03-11T23:36:27.560Z,0.17
2023-03-11T23:38:56.100Z,0.29
2023-03-11T23:41:24.954Z,0.25
2023-03-11T23:43:53.609Z,0.13
2023-03-11T23:46:22.135Z,0.26
2023-03-11T23:48:50.637Z,0.30
2023-03-11T23:51:19.078Z,0.35
2023-03-11T23:53:48.873Z,0.27
2023-03-11T23:56:19.483Z,0.13
2023-03-11T23:58:48.628Z,0.37
